createdAt,value
2023-04-22T00:01:58.721Z,10.51
2023-04-22T00:04:25.278Z,10.49
2023-04-22T00:06:51.752Z,10.48
2023-04-22T00:09:18.234Z,10.45
2023-04-22T00:11:44.658Z,10.43
2023-04-22T00:14:11.004Z,10.39
2023-04-22T00:16:37.940Z,10.38
2023-04-22T00:19:04.916Z,10.37
2023-04-22T00:21:31.802Z,10.30
2023-04-22T00:23:58.631Z,10.26
2023-04-22T00:26:26.252Z,10.22
2023-04-22T00:28:52.769Z,10.21
2023-04-22T00:31:20.521Z,10.18
2023-04-22T00:33:47.113Z,10.16
2023-04-22T00:36:13.605Z,10.13
2023-04-22T00:38:41.075Z,10.12
2023-04-22T00:41:08.120Z,10.10
2023-04-22T00:43:34.538Z,10.12
2023-04-22T00:46:01.354Z,10.11
2023-04-22T00:48:29.651Z,10.08
2023-04-22T00:50:56.038Z,10.08
2023-04-22T00:53:23.605Z,10.05
2023-04-22T00:55:50.561Z,10.04
2023-04-22T00:58:19.155Z,10.02
2023-04-22T01:00:46.136Z,10.00
2023-04-22T01:03:12.773Z,9.97
2023-04-22T01:05:42.882Z,9.95
2023-04-22T01:08:09.325Z,9.95
2023-04-22T01:10:35.926Z,9.95
2023-04-22T01:13:02.580Z,9.94
2023-04-22T01:15:29.364Z,9.93
2023-04-22T01:17:56.429Z,9.93
2023-04-22T01:20:22.890Z,9.94
2023-04-22T01:22:50.679Z,9.92
2023-04-22T01:25:17.617Z,9.90
2023-04-22T01:27:44.247Z,9.90
2023-04-22T01:30:11.140Z,9.88
2023-04-22T01:32:39.641Z,9.87
2023-04-22T01:35:06.606Z,9.87
2023-04-22T01:37:33.025Z,9.90
2023-04-22T01:40:00.060Z,9.86
2023-04-22T01:42:26.979Z,9.84
2023-04-22T01:44:53.640Z,9.83
2023-04-22T01:47:20.222Z,9.81
2023-04-22T01:49:46.604Z,9.83
2023-04-22T01:52:13.402Z,9.84
2023-04-22T01:54:40.559Z,9.87
2023-04-22T01:57:10.628Z,9.87
2023-04-22T01:59:37.425Z,9.93
2023-04-22T02:02:04.036Z,9.95
2023-04-22T02:04:30.447Z,9.97
2023-04-22T02:06:57.004Z,9.97
2023-04-22T02:09:23.675Z,9.89
2023-04-22T02:11:53.415Z,9.86
2023-04-22T02:14:19.817Z,9.86
2023-04-22T02:16:46.286Z,9.84
2023-04-22T02:19:13.005Z,9.79
2023-04-22T02:21:39.648Z,9.75
2023-04-22T02:24:06.266Z,9.70
2023-04-22T02:26:32.623Z,9.64
2023-04-22T02:28:59.003Z,9.63
2023-04-22T02:31:25.472Z,9.59
2023-04-22T02:33:52.068Z,9.57
2023-04-22T02:36:18.438Z,9.51
2023-04-22T02:38:44.853Z,9.44
2023-04-22T02:41:11.308Z,9.39
2023-04-22T02:43:37.702Z,9.37
2023-04-22T02:46:04.242Z,9.31
2023-04-22T02:48:30.781Z,9.24
2023-04-22T02:50:57.465Z,9.21
2023-04-22T02:53:23.863Z,9.19
2023-04-22T02:55:50.270Z,9.17
2023-04-22T02:58:16.723Z,9.14
2023-04-22T03:00:43.198Z,9.12
2023-04-22T03:03:09.860Z,9.10
2023-04-22T03:05:36.274Z,9.06
2023-04-22T03:08:02.614Z,9.05
2023-04-22T03:10:29.080Z,9.06
2023-04-22T03:12:55.474Z,9.04
2023-04-22T03:15:22.031Z,9.02
2023-04-22T03:17:48.854Z,9.01
2023-04-22T03:20:15.738Z,8.98
2023-04-22T03:22:42.073Z,8.98
2023-04-22T03:25:10.422Z,8.97
2023-04-22T03:27:36.848Z,8.93
2023-04-22T03:30:05.112Z,8.88
2023-04-22T03:32:31.564Z,8.81
2023-04-22T03:34:58.122Z,8.76
2023-04-22T03:37:24.845Z,8.69
2023-04-22T03:39:51.172Z,8.65
2023-04-22T03:42:17.626Z,8.59
2023-04-22T03:44:44.763Z,8.56
2023-04-22T03:47:11.113Z,8.49
2023-04-22T03:49:38.147Z,8.45
2023-04-22T03:52:04.817Z,8.38
2023-04-22T03:54:31.577Z,8.33
2023-04-22T03:56:57.936Z,8.41
2023-04-22T03:59:24.336Z,8.53
2023-04-22T04:01:52.141Z,8.40
2023-04-22T04:04:18.677Z,8.44
2023-04-22T04:06:45.200Z,8.30
2023-04-22T04:09:11.755Z,8.29
2023-04-22T04:11:38.154Z,8.29
2023-04-22T04:14:04.492Z,8.28
2023-04-22T04:16:30.951Z,8.26
2023-04-22T04:19:00.818Z,8.22
2023-04-22T04:21:27.290Z,8.20
2023-04-22T04:23:53.661Z,8.21
2023-04-22T04:26:20.114Z,8.21
2023-04-22T04:28:47.211Z,8.24
2023-04-22T04:31:13.620Z,8.26
2023-04-22T04:33:40.058Z,8.26
2023-04-22T04:36:06.719Z,8.22
2023-04-22T04:38:33.097Z,8.18
2023-04-22T04:40:59.615Z,8.15
2023-04-22T04:43:26.387Z,8.10
2023-04-22T04:45:53.346Z,8.10
2023-04-22T04:48:20.015Z,8.09
2023-04-22T04:50:46.503Z,8.08
2023-04-22T04:53:12.947Z,8.08
2023-04-22T04:55:39.434Z,8.10
2023-04-22T04:58:05.960Z,8.10
2023-04-22T05:00:32.684Z,8.14
2023-04-22T05:02:59.439Z,8.19
2023-04-22T05:05:25.965Z,8.19
2023-04-22T05:07:52.589Z,8.21
2023-04-22T05:10:19.492Z,8.23
2023-04-22T05:12:46.061Z,8.26
2023-04-22T05:15:12.454Z,8.33
2023-04-22T05:17:38.918Z,8.29
2023-04-22T05:20:06.206Z,8.31
2023-04-22T05:22:32.647Z,8.32
2023-04-22T05:24:59.052Z,8.40
2023-04-22T05:27:25.677Z,8.47
2023-04-22T05:29:53.779Z,8.51
2023-04-22T05:32:21.036Z,8.56
2023-04-22T05:34:47.581Z,8.61
2023-04-22T05:37:14.141Z,8.62
2023-04-22T05:39:40.810Z,8.64
2023-04-22T05:42:07.584Z,8.68
2023-04-22T05:44:34.281Z,8.70
2023-04-22T05:47:00.730Z,8.75
2023-04-22T05:49:27.458Z,8.76
2023-04-22T05:51:54.169Z,8.87
2023-04-22T05:54:25.795Z,8.85
2023-04-22T05:56:52.270Z,8.95
2023-04-22T05:59:22.572Z,9.06
2023-04-22T06:01:48.983Z,9.10
2023-04-22T06:04:18.297Z,9.24
2023-04-22T06:06:46.450Z,9.31
2023-04-22T06:09:14.440Z,9.29
2023-04-22T06:11:40.933Z,9.31
2023-04-22T06:14:07.494Z,9.50
2023-04-22T06:16:34.301Z,9.61
2023-04-22T06:19:04.080Z,9.80
2023-04-22T06:21:30.628Z,10.42
2023-04-22T06:23:56.981Z,10.69
2023-04-22T06:26:23.622Z,10.99
2023-04-22T06:28:50.085Z,11.72
2023-04-22T06:31:17.658Z,12.14
2023-04-22T06:33:46.587Z,12.36
2023-04-22T06:36:13.908Z,12.51
2023-04-22T06:38:40.472Z,12.89
2023-04-22T06:41:07.001Z,12.73
2023-04-22T06:43:33.461Z,12.81
2023-04-22T06:45:59.882Z,13.36
2023-04-22T06:48:30.589Z,13.59
2023-04-22T06:50:56.980Z,12.77
2023-04-22T06:53:23.435Z,12.52
2023-04-22T06:55:52.890Z,12.19
2023-04-22T06:58:19.311Z,11.97
2023-04-22T07:00:45.842Z,12.08
2023-04-22T07:03:13.599Z,11.88
2023-04-22T07:05:40.243Z,11.84
2023-04-22T07:08:06.739Z,12.09
2023-04-22T07:10:33.668Z,12.50
2023-04-22T07:13:00.228Z,12.70
2023-04-22T07:15:27.649Z,12.88
2023-04-22T07:17:54.633Z,12.85
2023-04-22T07:20:21.135Z,12.78
2023-04-22T07:22:47.837Z,13.13
2023-04-22T07:25:14.311Z,13.04
2023-04-22T07:27:40.698Z,12.91
2023-04-22T07:30:08.624Z,13.04
2023-04-22T07:32:36.226Z,13.58
2023-04-22T07:35:03.015Z,13.68
2023-04-22T07:37:29.604Z,13.59
2023-04-22T07:40:05.422Z,13.77
2023-04-22T07:42:31.982Z,13.79
2023-04-22T07:44:58.676Z,13.70
2023-04-22T07:47:25.107Z,13.75
2023-04-22T07:49:51.584Z,14.21
2023-04-22T07:52:18.068Z,14.47
2023-04-22T07:54:44.546Z,14.81
2023-04-22T07:57:11.398Z,14.96
2023-04-22T07:59:38.115Z,15.05
2023-04-22T08:02:04.836Z,15.11
2023-04-22T08:04:31.549Z,15.19
2023-04-22T08:06:58.001Z,15.44
2023-04-22T08:09:24.451Z,15.68
2023-04-22T08:11:52.777Z,16.07
2023-04-22T08:14:19.302Z,15.86
2023-04-22T08:16:45.848Z,16.13
2023-04-22T08:19:12.447Z,16.14
2023-04-22T08:21:38.851Z,16.19
2023-04-22T08:24:06.321Z,16.32
2023-04-22T08:26:32.770Z,16.69
2023-04-22T08:28:59.154Z,16.39
2023-04-22T08:31:25.977Z,16.05
2023-04-22T08:33:52.692Z,16.33
2023-04-22T08:36:19.497Z,16.17
2023-04-22T08:38:47.316Z,15.63
2023-04-22T08:41:15.533Z,15.87
2023-04-22T08:43:42.785Z,16.20
2023-04-22T08:46:09.814Z,16.28
2023-04-22T08:48:37.016Z,16.23
2023-04-22T08:51:04.029Z,16.57
2023-04-22T08:53:31.497Z,16.60
2023-04-22T08:55:58.460Z,16.69
2023-04-22T08:58:25.519Z,16.97
2023-04-22T09:00:52.248Z,17.29
2023-04-22T09:03:19.557Z,16.96
2023-04-22T09:05:47.968Z,16.48
2023-04-22T09:08:14.721Z,16.36
2023-04-22T09:10:41.518Z,16.88
2023-04-22T09:13:07.981Z,17.05
2023-04-22T09:15:34.456Z,17.71
2023-04-22T09:18:03.358Z,17.92
2023-04-22T09:20:30.465Z,18.61
2023-04-22T09:23:01.779Z,19.17
2023-04-22T09:25:28.497Z,19.21
2023-04-22T09:27:59.292Z,19.11
2023-04-22T09:30:28.604Z,19.12
2023-04-22T09:32:57.038Z,19.47
2023-04-22T09:35:31.535Z,19.19
2023-04-22T09:37:59.984Z,19.23
2023-04-22T09:40:27.507Z,18.65
2023-04-22T09:42:56.531Z,18.59
2023-04-22T09:45:37.577Z,19.07
2023-04-22T09:48:08.599Z,19.45
2023-04-22T09:50:35.686Z,19.44
2023-04-22T09:53:05.182Z,19.64
2023-04-22T09:55:37.320Z,19.36
2023-04-22T09:58:12.120Z,19.59
2023-04-22T10:00:46.028Z,19.89
2023-04-22T10:03:12.909Z,19.84
2023-04-22T10:05:39.576Z,20.23
2023-04-22T10:08:07.415Z,19.95
2023-04-22T10:10:34.417Z,20.21
2023-04-22T10:13:01.842Z,20.22
2023-04-22T10:15:34.608Z,20.40
2023-04-22T10:18:02.971Z,20.60
2023-04-22T10:20:31.602Z,20.69
2023-04-22T10:22:58.335Z,21.09
2023-04-22T10:25:26.187Z,21.13
2023-04-22T10:28:03.191Z,21.22
2023-04-22T10:30:32.313Z,21.26
2023-04-22T10:33:23.253Z,21.76
2023-04-22T10:36:09.927Z,21.80
2023-04-22T10:38:36.474Z,21.61
2023-04-22T10:41:02.936Z,22.02
2023-04-22T10:43:48.931Z,21.88
2023-04-22T10:46:41.385Z,21.64
2023-04-22T10:49:10.360Z,21.88
2023-04-22T10:51:43.054Z,21.54
2023-04-22T10:54:31.996Z,21.88
2023-04-22T10:57:04.890Z,21.92
2023-04-22T10:59:33.156Z,21.97
2023-04-22T11:02:06.651Z,22.47
2023-04-22T11:04:33.759Z,22.44
2023-04-22T11:07:18.661Z,22.32
2023-04-22T11:10:06.035Z,22.92
2023-04-22T11:12:35.206Z,22.78
2023-04-22T11:15:05.593Z,23.05
2023-04-22T11:17:32.085Z,23.21
2023-04-22T11:19:58.916Z,22.91
2023-04-22T11:22:25.477Z,22.21
2023-04-22T11:24:58.721Z,22.60
2023-04-22T11:27:25.580Z,22.57
2023-04-22T11:30:07.523Z,22.45
2023-04-22T11:32:37.847Z,22.03
2023-04-22T11:35:05.731Z,21.97
2023-04-22T11:37:43.674Z,22.39
2023-04-22T11:42:41.664Z,22.50
2023-04-22T11:45:08.804Z,23.03
2023-04-22T11:47:36.088Z,23.23
2023-04-22T11:50:05.895Z,23.29
2023-04-22T11:52:57.975Z,23.57
2023-04-22T11:55:32.401Z,23.40
2023-04-22T11:58:10.407Z,23.43
2023-04-22T12:00:48.646Z,23.20
2023-04-22T12:03:29.732Z,23.49
2023-04-22T12:05:59.186Z,23.63
2023-04-22T12:08:37.230Z,23.94
2023-04-22T12:11:08.493Z,23.95
2023-04-22T12:13:37.871Z,23.53
2023-04-22T12:16:09.654Z,22.93
2023-04-22T12:18:38.860Z,22.77
2023-04-22T12:21:10.262Z,23.11
2023-04-22T12:23:48.873Z,23.23
2023-04-22T12:26:17.529Z,23.20
2023-04-22T12:28:45.078Z,23.21
2023-04-22T12:31:13.068Z,23.54
2023-04-22T12:33:39.798Z,23.65
2023-04-22T12:36:07.208Z,23.97
2023-04-22T12:38:34.724Z,24.19
2023-04-22T12:41:02.353Z,24.37
2023-04-22T12:43:28.701Z,23.89
2023-04-22T12:45:55.151Z,23.68
2023-04-22T12:48:21.516Z,23.59
2023-04-22T12:50:47.976Z,23.87
2023-04-22T12:53:15.051Z,24.50
2023-04-22T12:55:42.478Z,25.00
2023-04-22T12:58:09.924Z,25.01
2023-04-22T13:00:36.326Z,25.06
2023-04-22T13:03:03.546Z,25.05
2023-04-22T13:05:30.134Z,25.11
2023-04-22T13:08:06.376Z,24.77
2023-04-22T13:10:33.904Z,24.49
2023-04-22T13:13:10.283Z,24.56
2023-04-22T13:15:43.965Z,24.10
2023-04-22T13:18:10.427Z,23.95
2023-04-22T13:20:36.932Z,23.32
2023-04-22T13:23:03.462Z,23.60
2023-04-22T13:25:30.188Z,23.57
2023-04-22T13:27:56.581Z,23.29
2023-04-22T13:30:23.129Z,23.00
2023-04-22T13:32:49.863Z,22.96
2023-04-22T13:35:16.302Z,23.13
2023-04-22T13:37:42.810Z,22.82
2023-04-22T13:40:09.610Z,22.91
2023-04-22T13:42:36.109Z,22.71
2023-04-22T13:45:15.905Z,22.77
2023-04-22T13:47:45.753Z,22.36
2023-04-22T13:50:13.823Z,22.28
2023-04-22T13:52:41.422Z,22.42
2023-04-22T13:55:14.804Z,22.31
2023-04-22T13:57:41.230Z,22.25
2023-04-22T14:00:10.093Z,22.50
2023-04-22T14:02:36.898Z,22.63
2023-04-22T14:05:03.453Z,22.83
2023-04-22T14:07:31.352Z,22.49
2023-04-22T14:09:57.787Z,22.49
2023-04-22T14:12:24.663Z,22.57
2023-04-22T14:14:51.079Z,22.18
2023-04-22T14:17:17.532Z,22.01
2023-04-22T14:19:44.336Z,22.02
2023-04-22T14:22:10.733Z,21.85
2023-04-22T14:24:37.220Z,21.77
2023-04-22T14:27:03.896Z,21.70
2023-04-22T14:29:30.619Z,21.53
2023-04-22T14:31:58.194Z,21.49
2023-04-22T14:34:24.861Z,21.35
2023-04-22T14:36:51.194Z,21.32
2023-04-22T14:39:17.572Z,21.26
2023-04-22T14:41:44.262Z,21.25
2023-04-22T14:44:10.703Z,21.31
2023-04-22T14:46:37.214Z,21.39
2023-04-22T14:49:03.790Z,21.40
2023-04-22T14:51:30.667Z,21.34
2023-04-22T14:53:57.421Z,21.29
2023-04-22T14:56:23.925Z,21.22
2023-04-22T14:58:50.342Z,21.08
2023-04-22T15:01:17.225Z,21.07
2023-04-22T15:03:44.103Z,21.12
2023-04-22T15:06:11.638Z,21.16
2023-04-22T15:08:38.123Z,21.10
2023-04-22T15:11:04.573Z,21.14
2023-04-22T15:13:31.255Z,21.25
2023-04-22T15:15:57.706Z,21.37
2023-04-22T15:18:24.159Z,21.48
2023-04-22T15:20:50.549Z,21.50
2023-04-22T15:23:17.311Z,21.28
2023-04-22T15:25:43.764Z,21.12
2023-04-22T15:28:10.688Z,21.13
2023-04-22T15:30:37.155Z,21.07
2023-04-22T15:33:05.508Z,20.97
2023-04-22T15:35:32.945Z,20.98
2023-04-22T15:37:59.317Z,20.94
2023-04-22T15:40:25.824Z,20.85
2023-04-22T15:42:52.806Z,20.84
2023-04-22T15:45:20.438Z,20.87
2023-04-22T15:47:47.691Z,20.86
2023-04-22T15:50:14.518Z,20.76
2023-04-22T15:52:41.502Z,20.75
2023-04-22T15:55:08.509Z,20.69
2023-04-22T15:57:35.545Z,20.66
2023-04-22T16:00:10.780Z,20.63
2023-04-22T16:02:40.196Z,20.58
2023-04-22T16:05:07.104Z,20.52
2023-04-22T16:07:33.626Z,20.45
2023-04-22T16:10:00.065Z,20.46
2023-04-22T16:12:26.574Z,20.47
2023-04-22T16:14:53.287Z,20.47
2023-04-22T16:17:20.026Z,20.48
2023-04-22T16:19:46.666Z,20.49
2023-04-22T16:22:13.241Z,20.46
2023-04-22T16:24:41.123Z,20.43
2023-04-22T16:27:09.721Z,20.35
2023-04-22T16:29:36.429Z,20.32
2023-04-22T16:32:03.083Z,20.28
2023-04-22T16:34:32.261Z,20.17
2023-04-22T16:36:59.274Z,20.10
2023-04-22T16:39:25.768Z,19.98
2023-04-22T16:41:58.198Z,19.87
2023-04-22T16:44:24.976Z,19.78
2023-04-22T16:46:52.211Z,19.68
2023-04-22T16:49:18.819Z,19.62
2023-04-22T16:51:45.249Z,19.55
2023-04-22T16:54:11.576Z,19.52
2023-04-22T16:56:38.008Z,19.45
2023-04-22T16:59:04.407Z,19.37
2023-04-22T17:01:31.338Z,19.30
2023-04-22T17:03:58.494Z,19.22
2023-04-22T17:06:25.443Z,19.18
2023-04-22T17:08:51.936Z,19.10
2023-04-22T17:11:18.394Z,19.03
2023-04-22T17:13:46.522Z,19.00
2023-04-22T17:16:13.185Z,18.97
2023-04-22T17:18:40.060Z,18.95
2023-04-22T17:21:06.837Z,18.92
2023-04-22T17:23:33.299Z,18.88
2023-04-22T17:25:59.672Z,18.87
2023-04-22T17:28:26.346Z,18.82
2023-04-22T17:30:53.567Z,18.74
2023-04-22T17:33:20.002Z,18.70
2023-04-22T17:35:47.709Z,18.70
2023-04-22T17:38:14.122Z,18.63
2023-04-22T17:40:40.761Z,18.58
2023-04-22T17:43:07.293Z,18.53
2023-04-22T17:45:34.178Z,18.47
2023-04-22T17:48:00.866Z,18.41
2023-04-22T17:50:36.875Z,18.36
2023-04-22T17:53:03.909Z,18.34
2023-04-22T17:55:30.745Z,18.27
2023-04-22T17:57:57.217Z,18.21
2023-04-22T18:00:24.336Z,18.14
2023-04-22T18:02:52.889Z,18.11
2023-04-22T18:05:20.626Z,18.08
2023-04-22T18:07:47.274Z,18.04
2023-04-22T18:10:13.909Z,18.04
2023-04-22T18:12:40.917Z,17.99
2023-04-22T18:15:08.172Z,17.90
2023-04-22T18:17:34.591Z,17.84
2023-04-22T18:20:13.941Z,17.80
2023-04-22T18:22:44.649Z,17.75
2023-04-22T18:25:11.142Z,17.65
2023-04-22T18:27:37.847Z,17.65
2023-04-22T18:30:05.982Z,17.66
2023-04-22T18:32:36.664Z,17.68
2023-04-22T18:35:03.501Z,17.57
2023-04-22T18:37:30.087Z,17.54
2023-04-22T18:39:57.087Z,17.45
2023-04-22T18:42:23.957Z,17.37
2023-04-22T18:44:58.028Z,17.29
2023-04-22T18:47:24.495Z,17.27
2023-04-22T18:49:50.978Z,17.17
2023-04-22T18:52:18.558Z,17.08
2023-04-22T18:54:45.150Z,17.01
2023-04-22T18:57:11.638Z,16.96
2023-04-22T18:59:38.531Z,16.84
2023-04-22T19:02:05.588Z,16.77
2023-04-22T19:04:32.116Z,16.73
2023-04-22T19:06:58.522Z,16.62
2023-04-22T19:09:24.974Z,16.53
2023-04-22T19:11:52.915Z,16.48
2023-04-22T19:14:19.320Z,16.37
2023-04-22T19:16:45.873Z,16.24
2023-04-22T19:19:12.612Z,16.11
2023-04-22T19:21:39.866Z,15.97
2023-04-22T19:24:06.601Z,15.71
2023-04-22T19:26:33.447Z,15.54
2023-04-22T19:28:59.857Z,15.44
2023-04-22T19:31:31.469Z,15.37
2023-04-22T19:33:58.095Z,15.31
2023-04-22T19:36:24.541Z,15.25
2023-04-22T19:38:54.489Z,15.22
2023-04-22T19:41:22.006Z,15.21
2023-04-22T19:43:49.219Z,15.15
2023-04-22T19:46:15.597Z,15.13
2023-04-22T19:48:42.257Z,14.99
2023-04-22T19:51:08.936Z,14.86
2023-04-22T19:53:35.946Z,14.81
2023-04-22T19:56:03.057Z,14.71
2023-04-22T19:58:30.479Z,14.68
2023-04-22T20:00:57.168Z,14.68
2023-04-22T20:03:24.388Z,14.70
2023-04-22T20:05:51.517Z,14.72
2023-04-22T20:08:25.812Z,14.73
2023-04-22T20:10:52.752Z,14.75
2023-04-22T20:13:19.559Z,14.77
2023-04-22T20:15:46.288Z,14.78
2023-04-22T20:18:13.114Z,14.79
2023-04-22T20:20:43.445Z,14.77
2023-04-22T20:23:10.232Z,14.76
2023-04-22T20:25:44.186Z,14.70
2023-04-22T20:28:12.457Z,14.54
2023-04-22T20:30:39.606Z,14.44
2023-04-22T20:33:06.414Z,14.45
2023-04-22T20:35:33.252Z,14.47
2023-04-22T20:38:01.259Z,14.41
2023-04-22T20:40:29.526Z,14.27
2023-04-22T20:42:58.008Z,14.07
2023-04-22T20:45:24.526Z,13.97
2023-04-22T20:47:50.983Z,13.95
2023-04-22T20:50:17.590Z,13.92
2023-04-22T20:52:44.272Z,13.97
2023-04-22T20:55:10.790Z,13.96
2023-04-22T20:57:37.397Z,13.92
2023-04-22T21:00:05.068Z,13.94
2023-04-22T21:02:34.584Z,13.95
2023-04-22T21:05:01.149Z,13.93
2023-04-22T21:07:29.651Z,13.86
2023-04-22T21:09:57.064Z,13.81
2023-04-22T21:12:24.197Z,13.81
2023-04-22T21:14:51.032Z,13.75
2023-04-22T21:17:30.901Z,13.65
2023-04-22T21:19:58.439Z,13.69
2023-04-22T21:22:25.726Z,13.72
2023-04-22T21:24:56.159Z,13.65
2023-04-22T21:27:22.711Z,13.65
2023-04-22T21:29:49.922Z,13.63
2023-04-22T21:32:17.197Z,13.62
2023-04-22T21:34:45.427Z,13.64
2023-04-22T21:37:12.729Z,13.62
2023-04-22T21:39:40.358Z,13.62
2023-04-22T21:42:06.913Z,13.51
2023-04-22T21:44:37.342Z,13.44
2023-04-22T21:47:04.057Z,13.42
2023-04-22T21:49:30.574Z,13.38
2023-04-22T21:51:59.769Z,13.44
2023-04-22T21:54:26.190Z,13.42
2023-04-22T21:56:53.056Z,13.40
2023-04-22T21:59:19.429Z,13.36
2023-04-22T22:01:46.273Z,13.27
2023-04-22T22:04:15.762Z,13.23
2023-04-22T22:06:42.826Z,13.21
2023-04-22T22:09:09.229Z,13.20
2023-04-22T22:11:35.631Z,13.14
2023-04-22T22:14:01.991Z,13.14
2023-04-22T22:16:28.676Z,13.12
2023-04-22T22:18:55.139Z,13.16
2023-04-22T22:21:21.753Z,13.18
2023-04-22T22:23:48.232Z,13.20
2023-04-22T22:26:14.742Z,13.15
2023-04-22T22:28:41.424Z,13.15
2023-04-22T22:31:08.030Z,13.07
2023-04-22T22:33:34.734Z,13.04
2023-04-22T22:36:01.590Z,13.03
2023-04-22T22:38:27.990Z,13.04
2023-04-22T22:40:54.498Z,13.04
2023-04-22T22:43:20.962Z,13.05
2023-04-22T22:45:47.642Z,13.03
2023-04-22T22:48:14.399Z,13.01
2023-04-22T22:50:41.025Z,12.95
2023-04-22T22:53:09.542Z,12.95
2023-04-22T22:55:36.091Z,12.87
2023-04-22T22:58:02.747Z,12.81
2023-04-22T23:00:29.257Z,12.77
2023-04-22T23:02:55.918Z,12.75
2023-04-22T23:05:22.374Z,12.76
2023-04-22T23:07:48.760Z,12.77
2023-04-22T23:10:15.134Z,12.78
2023-04-22T23:12:41.470Z,12.74
2023-04-22T23:15:08.262Z,12.66
2023-04-22T23:17:35.391Z,12.56
2023-04-22T23:20:03.668Z,12.48
2023-04-22T23:22:30.726Z,12.55
2023-04-22T23:24:57.588Z,12.59
2023-04-22T23:27:24.559Z,12.63
2023-04-22T23:29:51.326Z,12.57
2023-04-22T23:32:19.859Z,12.54
2023-04-22T23:34:49.825Z,12.51
2023-04-22T23:37:18.718Z,12.48
2023-04-22T23:39:45.344Z,12.48
2023-04-22T23:42:12.153Z,12.37
2023-04-22T23:44:38.904Z,12.34
2023-04-22T23:47:05.802Z,12.24
2023-04-22T23:49:32.351Z,12.23
2023-04-22T23:51:58.777Z,12.16
2023-04-22T23:54:25.455Z,12.16
2023-04-22T23:56:52.566Z,12.19
2023-04-22T23:59:19.124Z,12.19
